createdAt,value
2019-05-30T00:00:46.987Z,90.72
2019-05-30T00:01:46.974Z,91.64
2019-05-30T00:02:46.917Z,92.15
2019-05-30T00:03:46.896Z,91.64
2019-05-30T00:04:46.902Z,90.00
2019-05-30T00:05:46.928Z,92.10
2019-05-30T00:06:46.882Z,90.66
2019-05-30T00:07:46.852Z,91.48
2019-05-30T00:08:46.938Z,92.10
2019-05-30T00:09:46.846Z,91.63
2019-05-30T00:10:46.849Z,92.19
2019-05-30T00:11:46.821Z,92.10
2019-05-30T00:12:46.997Z,92.19
2019-05-30T00:13:46.786Z,93.32
2019-05-30T00:14:46.799Z,92.03
2019-05-30T00:15:46.838Z,89.89
2019-05-30T00:16:46.764Z,91.63
2019-05-30T00:17:46.744Z,93.26
2019-05-30T00:18:46.761Z,92.03
2019-05-30T00:19:46.779Z,93.47
2019-05-30T00:20:46.768Z,94.08
2019-05-30T00:21:46.727Z,94.90
2019-05-30T00:22:46.686Z,92.96
2019-05-30T00:23:46.699Z,93.06
2019-05-30T00:24:46.666Z,94.39
2019-05-30T00:25:46.670Z,93.00
2019-05-30T00:26:46.717Z,93.30
2019-05-30T00:27:46.679Z,93.62
2019-05-30T00:28:46.621Z,91.67
2019-05-30T00:29:46.613Z,90.95
2019-05-30T00:30:46.705Z,91.30
2019-05-30T00:31:46.601Z,91.20
2019-05-30T00:32:46.618Z,91.91
2019-05-30T00:33:46.568Z,93.04
2019-05-30T00:34:46.553Z,92.53
2019-05-30T00:35:46.665Z,92.63
2019-05-30T00:36:46.538Z,93.55
2019-05-30T00:37:46.549Z,92.83
2019-05-30T00:38:46.528Z,92.47
2019-05-30T00:39:46.511Z,93.86
2019-05-30T00:40:46.603Z,94.32
2019-05-30T00:41:46.483Z,95.54
2019-05-30T00:42:46.508Z,94.62
2019-05-30T00:43:46.467Z,93.60
2019-05-30T00:44:46.442Z,95.03
2019-05-30T00:45:46.450Z,93.60
2019-05-30T00:46:46.556Z,93.19
2019-05-30T00:47:46.423Z,94.83
2019-05-30T00:48:46.574Z,96.06
2019-05-30T00:49:46.431Z,96.06
2019-05-30T00:50:46.397Z,95.95
2019-05-30T00:51:46.378Z,93.85
2019-05-30T00:52:46.380Z,93.54
2019-05-30T00:53:46.347Z,93.54
2019-05-30T00:54:46.341Z,93.85
2019-05-30T00:55:46.383Z,92.25
2019-05-30T00:56:46.322Z,94.46
2019-05-30T00:57:46.364Z,93.79
2019-05-30T00:58:46.294Z,95.12
2019-05-30T00:59:46.288Z,94.81
2019-05-30T01:00:46.361Z,94.92
2019-05-30T01:01:46.260Z,96.15
2019-05-30T01:02:46.344Z,93.21
2019-05-30T01:03:46.234Z,94.65
2019-05-30T01:04:46.256Z,95.47
2019-05-30T01:05:46.234Z,95.06
2019-05-30T01:06:46.201Z,94.34
2019-05-30T01:07:46.201Z,95.78
2019-05-30T01:08:46.305Z,95.37
2019-05-30T01:09:46.199Z,96.40
2019-05-30T01:10:46.183Z,95.27
2019-05-30T01:11:46.168Z,96.40
2019-05-30T01:12:46.241Z,95.98
2019-05-30T01:13:46.146Z,96.50
2019-05-30T01:14:46.115Z,97.42
2019-05-30T01:15:46.169Z,97.22
2019-05-30T01:16:46.118Z,97.94
2019-05-30T01:17:46.156Z,96.60
2019-05-30T01:18:46.072Z,95.06
2019-05-30T01:19:46.062Z,94.55
2019-05-30T01:20:46.138Z,97.42
2019-05-30T01:21:46.074Z,96.09
2019-05-30T01:22:46.056Z,95.17
2019-05-30T01:23:46.059Z,96.30
2019-05-30T01:24:46.014Z,95.89
2019-05-30T01:25:46.062Z,97.12
2019-05-30T01:26:46.013Z,97.32
2019-05-30T01:27:45.986Z,95.68
2019-05-30T01:28:45.974Z,96.60
2019-05-30T01:29:45.979Z,97.94
2019-05-30T01:30:58.929Z,97.83
2019-05-30T01:31:46.948Z,97.63
2019-05-30T01:32:45.940Z,96.40
2019-05-30T01:33:45.922Z,95.57
2019-05-30T01:34:46.477Z,95.47
2019-05-30T01:35:45.965Z,93.42
2019-05-30T01:36:45.893Z,96.30
2019-05-30T01:37:45.872Z,93.73
2019-05-30T01:38:45.871Z,96.19
2019-05-30T01:39:45.873Z,96.50
2019-05-30T01:40:45.850Z,96.44
2019-05-30T01:41:45.871Z,97.83
2019-05-30T01:42:45.808Z,97.12
2019-05-30T01:43:45.815Z,97.53
2019-05-30T01:44:45.789Z,96.81
2019-05-30T01:45:45.800Z,96.09
2019-05-30T01:46:45.835Z,94.96
2019-05-30T01:47:45.768Z,94.90
2019-05-30T01:48:45.748Z,95.10
2019-05-30T01:49:45.740Z,96.23
2019-05-30T01:50:45.800Z,95.83
2019-05-30T01:51:45.726Z,97.67
2019-05-30T01:52:45.724Z,97.57
2019-05-30T01:53:45.827Z,96.03
2019-05-30T01:54:45.673Z,94.84
2019-05-30T01:55:48.561Z,96.14
2019-05-30T01:56:45.676Z,98.29
2019-05-30T01:57:45.699Z,97.16
2019-05-30T01:58:45.633Z,96.28
2019-05-30T01:59:45.623Z,95.77
2019-05-30T02:00:45.713Z,96.55
2019-05-30T02:01:45.608Z,97.62
2019-05-30T02:02:45.607Z,96.23
2019-05-30T02:03:45.594Z,95.56
2019-05-30T02:04:45.712Z,95.15
2019-05-30T02:05:45.550Z,96.69
2019-05-30T02:06:45.581Z,95.36
2019-05-30T02:07:45.559Z,96.28
2019-05-30T02:08:45.517Z,95.25
2019-05-30T02:09:45.504Z,97.00
2019-05-30T02:10:45.514Z,96.33
2019-05-30T02:11:45.518Z,96.12
2019-05-30T02:12:45.491Z,96.53
2019-05-30T02:13:45.515Z,96.84
2019-05-30T02:14:45.466Z,96.43
2019-05-30T02:15:45.451Z,96.43
2019-05-30T02:16:45.433Z,96.53
2019-05-30T02:17:45.478Z,96.33
2019-05-30T02:18:45.512Z,95.14
2019-05-30T02:19:45.405Z,96.27
2019-05-30T02:20:45.406Z,97.56
2019-05-30T02:21:45.373Z,98.28
2019-05-30T02:22:45.413Z,96.47
2019-05-30T02:23:45.360Z,97.19
2019-05-30T02:24:45.458Z,96.68
2019-05-30T02:25:45.347Z,96.37
2019-05-30T02:26:45.368Z,97.61
2019-05-30T02:27:45.346Z,98.43
2019-05-30T02:28:45.297Z,98.18
2019-05-30T02:29:45.355Z,96.47
2019-05-30T02:30:45.272Z,97.50
2019-05-30T02:31:45.269Z,97.81
2019-05-30T02:32:45.360Z,98.07
2019-05-30T02:33:45.248Z,98.79
2019-05-30T02:34:45.238Z,97.61
2019-05-30T02:35:45.310Z,96.68
2019-05-30T02:36:45.218Z,94.15
2019-05-30T02:37:45.219Z,95.39
2019-05-30T02:38:45.194Z,95.90
2019-05-30T02:39:45.184Z,96.62
2019-05-30T02:40:45.199Z,96.62
2019-05-30T02:41:45.151Z,97.14
2019-05-30T02:42:45.154Z,98.47
2019-05-30T02:43:45.192Z,98.68
2019-05-30T02:44:45.123Z,98.16
2019-05-30T02:45:45.115Z,97.81
2019-05-30T02:46:45.133Z,98.99
2019-05-30T02:47:45.108Z,98.27
2019-05-30T02:48:58.128Z,97.75
2019-05-30T02:49:46.089Z,97.65
2019-05-30T02:50:45.082Z,97.86
2019-05-30T02:51:45.057Z,96.72
2019-05-30T02:52:45.045Z,98.47
2019-05-30T02:53:45.029Z,98.68
2019-05-30T02:54:45.014Z,97.96
2019-05-30T02:55:45.004Z,98.47
2019-05-30T02:56:45.043Z,98.27
2019-05-30T02:57:44.989Z,97.86
2019-05-30T02:58:45.002Z,95.90
2019-05-30T02:59:45.025Z,96.25
2019-05-30T03:00:44.955Z,97.80
2019-05-30T03:02:00.214Z,97.55
2019-05-30T03:02:45.953Z,97.90
2019-05-30T03:03:44.925Z,97.96
2019-05-30T03:04:44.936Z,97.69
2019-05-30T03:05:44.937Z,96.46
2019-05-30T03:06:44.884Z,95.74
2019-05-30T03:07:44.906Z,96.36
2019-05-30T03:08:45.002Z,96.56
2019-05-30T03:09:44.856Z,98.00
2019-05-30T03:10:44.852Z,98.62
2019-05-30T03:11:44.836Z,98.52
2019-05-30T03:12:45.037Z,98.62
2019-05-30T03:13:44.815Z,98.93
2019-05-30T03:14:44.799Z,99.14
2019-05-30T03:15:44.805Z,98.32
2019-05-30T03:16:44.775Z,97.60
2019-05-30T03:17:44.790Z,96.50
2019-05-30T03:18:44.774Z,96.20
2019-05-30T03:19:44.784Z,96.30
2019-05-30T03:20:44.770Z,97.02
2019-05-30T03:21:44.729Z,97.53
2019-05-30T03:22:44.788Z,98.67
2019-05-30T03:23:44.699Z,99.49
2019-05-30T03:24:44.680Z,99.24
2019-05-30T03:25:44.677Z,99.34
2019-05-30T03:26:44.665Z,99.96
2019-05-30T03:27:44.720Z,98.36
2019-05-30T03:28:44.765Z,99.04
2019-05-30T03:29:44.644Z,98.72
2019-05-30T03:30:44.623Z,99.14
2019-05-30T03:31:44.648Z,98.93
2019-05-30T03:33:07.020Z,97.90
2019-05-30T03:33:45.610Z,97.85
2019-05-30T03:34:44.604Z,98.21
2019-05-30T03:35:44.808Z,99.14
2019-05-30T03:36:44.556Z,99.99
2019-05-30T03:37:44.587Z,99.34
2019-05-30T03:38:44.598Z,99.04
2019-05-30T03:39:44.544Z,98.72
2019-05-30T03:40:44.509Z,99.04
2019-05-30T03:41:44.629Z,97.69
2019-05-30T03:42:44.497Z,97.80
2019-05-30T03:43:44.491Z,99.34
2019-05-30T03:44:44.484Z,99.76
2019-05-30T03:45:44.509Z,99.81
2019-05-30T03:46:44.446Z,99.19
2019-05-30T03:47:44.449Z,99.04
2019-05-30T03:48:44.581Z,98.42
2019-05-30T03:49:44.417Z,99.19
2019-05-30T03:50:44.437Z,99.81
2019-05-30T03:51:44.401Z,98.88
2019-05-30T03:52:44.389Z,98.42
2019-05-30T03:53:44.418Z,96.77
2019-05-30T03:54:44.372Z,97.69
2019-05-30T03:55:44.342Z,98.83
2019-05-30T03:56:44.342Z,98.58
2019-05-30T03:57:44.329Z,99.19
2019-05-30T03:58:44.337Z,97.75
2019-05-30T03:59:44.409Z,97.49
2019-05-30T04:00:44.307Z,99.40
2019-05-30T04:01:44.283Z,98.79
2019-05-30T04:02:56.027Z,98.79
2019-05-30T04:03:45.259Z,97.28
2019-05-30T04:04:44.271Z,97.90
2019-05-30T04:05:44.241Z,96.93
2019-05-30T04:06:44.280Z,96.67
2019-05-30T04:07:44.214Z,97.75
2019-05-30T04:08:44.211Z,98.79
2019-05-30T04:09:44.233Z,98.47
2019-05-30T04:10:44.205Z,97.75
2019-05-30T04:11:44.185Z,98.79
2019-05-30T04:12:44.158Z,98.58
2019-05-30T04:13:44.153Z,98.16
2019-05-30T04:14:44.205Z,97.96
2019-05-30T04:15:44.165Z,98.79
2019-05-30T04:16:44.132Z,97.55
2019-05-30T04:17:44.144Z,97.86
2019-05-30T04:18:44.096Z,98.58
2019-05-30T04:19:44.094Z,99.09
2019-05-30T04:20:44.080Z,98.84
2019-05-30T04:21:44.069Z,97.81
2019-05-30T04:22:44.091Z,99.15
2019-05-30T04:23:44.050Z,98.43
2019-05-30T04:24:44.032Z,97.55
2019-05-30T04:25:44.031Z,97.71
2019-05-30T04:26:44.018Z,97.71
2019-05-30T04:27:44.004Z,97.30
2019-05-30T04:28:44.010Z,97.55
2019-05-30T04:29:44.030Z,98.22
2019-05-30T04:30:43.977Z,97.50
2019-05-30T04:31:43.966Z,98.43
2019-05-30T04:32:43.969Z,99.15
2019-05-30T04:33:43.970Z,97.91
2019-05-30T04:34:43.921Z,96.89
2019-05-30T04:35:43.982Z,96.58
2019-05-30T04:36:43.893Z,97.50
2019-05-30T04:37:43.892Z,97.30
2019-05-30T04:38:43.898Z,96.68
2019-05-30T04:39:43.885Z,96.58
2019-05-30T04:40:43.855Z,96.68
2019-05-30T04:41:43.895Z,96.21
2019-05-30T04:42:43.838Z,95.70
2019-05-30T04:43:43.837Z,96.52
2019-05-30T04:44:43.827Z,96.72
2019-05-30T04:45:43.823Z,96.72
2019-05-30T04:46:43.886Z,97.09
2019-05-30T04:47:43.782Z,96.37
2019-05-30T04:48:43.805Z,96.21
2019-05-30T04:49:43.769Z,96.31
2019-05-30T04:50:43.761Z,97.75
2019-05-30T04:51:43.737Z,97.81
2019-05-30T04:52:43.732Z,96.78
2019-05-30T04:53:43.917Z,97.61
2019-05-30T04:54:43.726Z,98.02
2019-05-30T04:55:43.694Z,99.05
2019-05-30T04:56:43.762Z,99.25
2019-05-30T04:57:43.680Z,98.22
2019-05-30T04:58:43.670Z,98.43
2019-05-30T04:59:43.702Z,98.12
2019-05-30T05:00:43.719Z,97.50
2019-05-30T05:01:43.635Z,98.07
2019-05-30T05:02:43.616Z,98.18
2019-05-30T05:03:46.368Z,97.45
2019-05-30T05:04:43.665Z,96.43
2019-05-30T05:05:43.609Z,96.43
2019-05-30T05:06:43.596Z,96.53
2019-05-30T05:07:43.573Z,96.64
2019-05-30T05:08:43.554Z,96.94
2019-05-30T05:09:43.560Z,96.64
2019-05-30T05:10:43.527Z,96.73
2019-05-30T05:11:43.545Z,97.10
2019-05-30T05:12:43.515Z,97.00
2019-05-30T05:13:43.626Z,95.50
2019-05-30T05:14:43.495Z,94.84
2019-05-30T05:15:43.471Z,93.71
2019-05-30T05:16:43.528Z,93.51
2019-05-30T05:17:43.460Z,92.93
2019-05-30T05:18:43.489Z,93.55
2019-05-30T05:19:43.460Z,94.74
2019-05-30T05:20:43.488Z,94.64
2019-05-30T05:21:43.417Z,96.18
2019-05-30T05:22:43.489Z,93.61
2019-05-30T05:23:43.382Z,93.71
2019-05-30T05:24:43.393Z,93.51
2019-05-30T05:25:43.359Z,93.40
2019-05-30T05:26:43.366Z,93.26
2019-05-30T05:27:43.430Z,92.38
2019-05-30T05:28:43.345Z,92.03
2019-05-30T05:29:43.421Z,92.48
2019-05-30T05:30:43.326Z,91.86
2019-05-30T05:31:43.293Z,93.36
2019-05-30T05:32:43.294Z,92.44
2019-05-30T05:33:55.696Z,91.51
2019-05-30T05:34:44.282Z,91.93
2019-05-30T05:35:43.272Z,89.87
2019-05-30T05:36:43.283Z,89.56
2019-05-30T05:37:43.224Z,91.06
2019-05-30T05:38:43.230Z,88.95
2019-05-30T05:39:43.229Z,89.62
2019-05-30T05:40:43.253Z,89.83
2019-05-30T05:41:43.189Z,88.39
2019-05-30T05:42:43.174Z,88.39
2019-05-30T05:43:43.287Z,89.93
2019-05-30T05:44:43.151Z,90.03
2019-05-30T05:45:43.175Z,88.49
2019-05-30T05:46:43.161Z,88.49
2019-05-30T05:47:43.141Z,89.93
2019-05-30T05:48:43.101Z,89.11
2019-05-30T05:49:43.091Z,90.30
2019-05-30T05:50:43.097Z,89.17
2019-05-30T05:51:43.067Z,89.69
2019-05-30T05:52:43.086Z,91.02
2019-05-30T05:53:43.054Z,89.64
2019-05-30T05:54:43.050Z,89.54
2019-05-30T05:55:43.107Z,89.75
2019-05-30T05:56:43.034Z,90.05
2019-05-30T05:57:43.045Z,90.67
2019-05-30T05:58:43.143Z,91.75
2019-05-30T05:59:42.984Z,90.52
2019-05-30T06:00:43.000Z,86.25
2019-05-30T06:01:42.997Z,86.32
2019-05-30T06:02:42.958Z,88.78
2019-05-30T06:03:42.957Z,90.42
2019-05-30T06:04:42.941Z,88.27
2019-05-30T06:05:52.606Z,87.55
2019-05-30T06:06:43.937Z,87.55
2019-05-30T06:07:42.905Z,87.65
2019-05-30T06:08:42.888Z,90.17
2019-05-30T06:09:42.893Z,88.74
2019-05-30T06:10:42.956Z,88.43
2019-05-30T06:11:42.853Z,90.89
2019-05-30T06:12:42.881Z,88.39
2019-05-30T06:13:42.832Z,86.96
2019-05-30T06:14:42.846Z,86.75
2019-05-30T06:15:42.856Z,86.75
2019-05-30T06:16:42.797Z,87.67
2019-05-30T06:17:42.789Z,88.08
2019-05-30T06:18:42.783Z,88.59
2019-05-30T06:19:46.522Z,86.85
2019-05-30T06:20:42.778Z,87.73
2019-05-30T06:21:53.513Z,89.27
2019-05-30T06:22:43.727Z,89.68
2019-05-30T06:23:45.546Z,88.76
2019-05-30T06:24:42.703Z,88.14
2019-05-30T06:25:42.710Z,85.58
2019-05-30T06:26:42.676Z,86.51
2019-05-30T06:27:42.671Z,82.78
2019-05-30T06:28:42.663Z,84.22
2019-05-30T06:29:42.680Z,85.96
2019-05-30T06:30:42.674Z,86.67
2019-05-30T06:31:42.640Z,87.79
2019-05-30T06:32:42.619Z,86.02
2019-05-30T06:33:42.612Z,87.85
2019-05-30T06:34:42.594Z,84.58
2019-05-30T06:35:42.595Z,83.46
2019-05-30T06:36:42.576Z,85.71
2019-05-30T06:37:42.591Z,85.61
2019-05-30T06:38:42.556Z,83.62
2019-05-30T06:39:42.535Z,79.13
2019-05-30T06:40:42.535Z,79.02
2019-05-30T06:41:42.527Z,83.62
2019-05-30T06:42:42.521Z,85.26
2019-05-30T06:43:42.491Z,83.93
2019-05-30T06:44:42.490Z,83.42
2019-05-30T06:45:42.564Z,82.87
2019-05-30T06:46:42.479Z,82.05
2019-05-30T06:47:42.502Z,81.44
2019-05-30T06:48:42.565Z,82.46
2019-05-30T06:49:42.429Z,82.83
2019-05-30T06:50:42.438Z,82.83
2019-05-30T06:51:42.411Z,80.28
2019-05-30T06:52:42.406Z,81.81
2019-05-30T06:53:42.390Z,81.91
2019-05-30T06:54:42.383Z,80.85
2019-05-30T06:55:42.447Z,79.66
2019-05-30T06:56:44.711Z,80.65
2019-05-30T06:57:42.341Z,78.91
2019-05-30T06:58:48.811Z,77.28
2019-05-30T06:59:43.367Z,78.98
2019-05-30T07:00:42.316Z,78.98
2019-05-30T07:01:42.319Z,79.59
2019-05-30T07:02:42.356Z,75.61
2019-05-30T07:03:42.413Z,74.18
2019-05-30T07:04:51.550Z,75.61
2019-05-30T07:05:43.669Z,77.45
2019-05-30T07:06:42.606Z,77.11
2019-05-30T07:07:42.380Z,75.37
2019-05-30T07:08:42.244Z,74.76
2019-05-30T07:09:42.220Z,73.54
2019-05-30T07:10:42.214Z,75.64
2019-05-30T07:11:42.234Z,75.64
2019-05-30T07:12:42.181Z,73.91
2019-05-30T07:13:42.178Z,75.03
2019-05-30T07:14:42.177Z,75.13
2019-05-30T07:15:42.164Z,73.06
2019-05-30T07:16:42.137Z,72.24
2019-05-30T07:17:42.129Z,71.12
2019-05-30T07:18:42.126Z,70.99
2019-05-30T07:19:42.113Z,70.28
2019-05-30T07:20:42.151Z,75.67
2019-05-30T07:21:42.096Z,72.17
2019-05-30T07:22:42.075Z,71.91
2019-05-30T07:23:42.070Z,72.48
2019-05-30T07:24:42.326Z,72.48
2019-05-30T07:25:42.044Z,70.34
2019-05-30T07:26:42.033Z,70.01
2019-05-30T07:27:42.068Z,73.47
2019-05-30T07:28:42.062Z,74.18
2019-05-30T07:29:42.051Z,71.80
2019-05-30T07:30:41.981Z,70.48
2019-05-30T07:31:42.040Z,70.38
2019-05-30T07:32:41.999Z,72.92
2019-05-30T07:33:41.950Z,70.86
2019-05-30T07:34:45.604Z,68.01
2019-05-30T07:35:41.952Z,66.08
2019-05-30T07:36:41.924Z,63.91
2019-05-30T07:37:41.910Z,63.51
2019-05-30T07:38:41.996Z,64.83
2019-05-30T07:39:41.887Z,62.08
2019-05-30T07:40:41.955Z,58.53
2019-05-30T07:41:41.865Z,60.15
2019-05-30T07:42:41.862Z,61.65
2019-05-30T07:43:41.850Z,60.02
2019-05-30T07:44:41.841Z,60.22
2019-05-30T07:45:46.759Z,62.02
2019-05-30T07:46:42.808Z,60.20
2019-05-30T07:47:41.794Z,58.27
2019-05-30T07:48:41.788Z,61.99
2019-05-30T07:49:41.846Z,58.45
2019-05-30T07:50:41.799Z,59.03
2019-05-30T07:51:42.205Z,59.53
2019-05-30T07:52:42.781Z,58.34
2019-05-30T07:53:41.735Z,56.71
2019-05-30T07:54:41.749Z,56.23
2019-05-30T07:55:41.730Z,58.76
2019-05-30T07:56:41.745Z,63.15
2019-05-30T07:57:41.951Z,59.00
2019-05-30T07:58:41.681Z,57.50
2019-05-30T07:59:41.687Z,58.22
2019-05-30T08:00:41.670Z,58.24
2019-05-30T08:01:41.743Z,58.65
2019-05-30T08:02:41.678Z,60.30
2019-05-30T08:03:41.677Z,59.99
2019-05-30T08:04:41.651Z,59.89
2019-05-30T08:05:41.632Z,59.79
2019-05-30T08:06:41.616Z,58.37
2019-05-30T08:07:41.734Z,62.13
2019-05-30T08:08:41.599Z,59.89
2019-05-30T08:09:41.619Z,61.21
2019-05-30T08:10:41.580Z,60.13
2019-05-30T08:11:41.607Z,61.01
2019-05-30T08:12:41.614Z,64.09
2019-05-30T08:13:41.559Z,62.36
2019-05-30T08:14:41.708Z,63.58
2019-05-30T08:15:44.054Z,63.24
2019-05-30T08:16:41.494Z,64.70
2019-05-30T08:17:44.326Z,61.72
2019-05-30T08:18:41.508Z,57.76
2019-05-30T08:19:41.446Z,58.17
2019-05-30T08:20:41.454Z,65.68
2019-05-30T08:21:41.524Z,65.81
2019-05-30T08:22:41.428Z,62.05
2019-05-30T08:23:41.409Z,62.53
2019-05-30T08:24:41.444Z,63.14
2019-05-30T08:25:41.383Z,66.69
2019-05-30T08:26:41.388Z,64.06
2019-05-30T08:27:41.434Z,63.45
2019-05-30T08:28:42.729Z,60.60
2019-05-30T08:29:41.452Z,60.81
2019-05-30T08:30:41.353Z,64.39
2019-05-30T08:31:41.385Z,62.43
2019-05-30T08:32:41.324Z,59.69
2019-05-30T08:33:41.297Z,62.94
2019-05-30T08:34:41.286Z,61.93
2019-05-30T08:35:49.224Z,63.45
2019-05-30T08:36:42.284Z,61.93
2019-05-30T08:37:41.268Z,61.52
2019-05-30T08:38:41.311Z,64.97
2019-05-30T08:39:41.283Z,63.82
2019-05-30T08:40:41.224Z,64.97
2019-05-30T08:41:41.230Z,64.64
2019-05-30T08:42:41.274Z,66.05
2019-05-30T08:43:41.202Z,67.98
2019-05-30T08:44:41.222Z,64.13
2019-05-30T08:45:41.175Z,61.49
2019-05-30T08:46:41.166Z,59.86
2019-05-30T08:47:41.177Z,63.11
2019-05-30T08:48:41.129Z,60.07
2019-05-30T08:49:41.115Z,63.92
2019-05-30T08:50:44.325Z,62.37
2019-05-30T08:51:41.117Z,64.81
2019-05-30T08:52:41.213Z,61.76
2019-05-30T08:53:41.088Z,61.36
2019-05-30T08:54:41.060Z,58.31
2019-05-30T08:55:41.069Z,58.01
2019-05-30T08:56:41.048Z,60.44
2019-05-30T08:57:41.219Z,55.47
2019-05-30T08:58:41.045Z,60.04
2019-05-30T08:59:44.517Z,63.18
2019-05-30T09:00:41.004Z,61.46
2019-05-30T09:01:42.134Z,58.31
2019-05-30T09:02:41.146Z,60.85
2019-05-30T09:03:42.150Z,60.42
2019-05-30T09:04:41.990Z,60.31
2019-05-30T09:05:58.158Z,61.23
2019-05-30T09:06:42.107Z,58.49
2019-05-30T09:07:42.733Z,55.32
2019-05-30T09:08:41.935Z,56.03
2019-05-30T09:09:42.155Z,57.35
2019-05-30T09:10:41.315Z,58.06
2019-05-30T09:11:42.242Z,58.26
2019-05-30T09:12:42.794Z,56.03
2019-05-30T09:13:40.874Z,61.10
2019-05-30T09:14:41.249Z,62.82
2019-05-30T09:15:41.123Z,60.19
2019-05-30T09:16:40.834Z,60.08
2019-05-30T09:17:42.467Z,59.88
2019-05-30T09:18:41.621Z,56.23
2019-05-30T09:19:41.486Z,58.56
2019-05-30T09:20:41.918Z,56.23
2019-05-30T09:21:41.458Z,54.89
2019-05-30T09:22:41.863Z,59.55
2019-05-30T09:23:42.245Z,61.37
2019-05-30T09:24:41.956Z,61.27
2019-05-30T09:25:41.527Z,53.27
2019-05-30T09:26:44.199Z,55.60
2019-05-30T09:27:42.859Z,57.83
2019-05-30T09:28:41.182Z,58.03
2019-05-30T09:29:41.665Z,58.54
2019-05-30T09:30:41.680Z,58.03
2019-05-30T09:31:41.194Z,59.65
2019-05-30T09:32:41.375Z,57.65
2019-05-30T09:33:40.958Z,56.21
2019-05-30T09:34:42.018Z,58.13
2019-05-30T09:35:41.448Z,55.32
2019-05-30T09:36:41.022Z,54.49
2019-05-30T09:37:42.014Z,55.10
2019-05-30T09:38:41.791Z,59.95
2019-05-30T09:39:41.539Z,54.59
2019-05-30T09:40:42.009Z,55.10
2019-05-30T09:41:42.050Z,55.07
2019-05-30T09:42:41.178Z,58.61
2019-05-30T09:43:41.581Z,59.12
2019-05-30T09:44:41.948Z,54.36
2019-05-30T09:45:41.251Z,51.83
2019-05-30T09:46:41.461Z,54.76
2019-05-30T09:47:43.019Z,56.28
2019-05-30T09:48:42.038Z,55.55
2019-05-30T09:49:41.856Z,60.00
2019-05-30T09:50:41.979Z,60.61
2019-05-30T09:51:40.563Z,59.29
2019-05-30T09:52:41.741Z,57.17
2019-05-30T09:53:41.057Z,63.71
2019-05-30T09:54:41.180Z,62.23
2019-05-30T09:55:41.328Z,54.21
2019-05-30T09:56:40.447Z,58.76
2019-05-30T09:57:42.396Z,57.85
2019-05-30T09:58:42.254Z,59.87
2019-05-30T09:59:41.785Z,56.43
2019-05-30T10:00:42.835Z,52.69
2019-05-30T10:01:42.625Z,53.27
2019-05-30T10:02:40.408Z,57.44
2019-05-30T10:03:40.346Z,56.40
2019-05-30T10:04:40.336Z,58.12
2019-05-30T10:05:40.315Z,56.61
2019-05-30T10:06:40.314Z,56.81
2019-05-30T10:07:40.287Z,55.90
2019-05-30T10:08:40.304Z,51.65
2019-05-30T10:09:40.267Z,53.27
2019-05-30T10:10:40.253Z,55.09
2019-05-30T10:11:40.244Z,55.90
2019-05-30T10:12:40.235Z,48.62
2019-05-30T10:13:40.262Z,48.82
2019-05-30T10:14:40.215Z,48.02
2019-05-30T10:15:40.222Z,51.55
2019-05-30T10:16:40.195Z,51.65
2019-05-30T10:17:40.181Z,49.61
2019-05-30T10:18:40.160Z,49.22
2019-05-30T10:19:40.191Z,55.36
2019-05-30T10:20:40.143Z,56.07
2019-05-30T10:21:40.165Z,51.43
2019-05-30T10:22:40.134Z,50.82
2019-05-30T10:23:40.227Z,48.60
2019-05-30T10:24:42.997Z,50.01
2019-05-30T10:25:40.078Z,48.70
2019-05-30T10:26:40.072Z,46.86
2019-05-30T10:27:40.062Z,51.00
2019-05-30T10:28:40.057Z,48.58
2019-05-30T10:29:40.068Z,48.07
2019-05-30T10:30:40.114Z,47.47
2019-05-30T10:31:40.015Z,52.01
2019-05-30T10:32:40.084Z,51.71
2019-05-30T10:33:39.996Z,52.92
2019-05-30T10:34:39.995Z,54.94
2019-05-30T10:35:39.967Z,52.61
2019-05-30T10:36:44.120Z,56.05
2019-05-30T10:37:39.953Z,55.24
2019-05-30T10:38:40.032Z,54.71
2019-05-30T10:39:40.072Z,51.40
2019-05-30T10:40:40.068Z,55.72
2019-05-30T10:41:39.907Z,52.31
2019-05-30T10:42:39.914Z,52.61
2019-05-30T10:43:39.905Z,56.65
2019-05-30T10:44:39.882Z,56.05
2019-05-30T10:45:39.873Z,54.83
2019-05-30T10:46:39.851Z,55.32
2019-05-30T10:47:39.907Z,55.21
2019-05-30T10:48:39.822Z,49.36
2019-05-30T10:49:39.831Z,47.97
2019-05-30T10:50:39.973Z,53.22
2019-05-30T10:51:39.807Z,49.26
2019-05-30T10:52:39.777Z,52.01
2019-05-30T10:53:39.768Z,53.12
2019-05-30T10:54:39.776Z,50.80
2019-05-30T10:55:39.765Z,48.78
2019-05-30T10:56:39.746Z,48.17
2019-05-30T10:57:39.728Z,49.89
2019-05-30T10:58:39.862Z,51.71
2019-05-30T10:59:39.817Z,48.98
2019-05-30T11:00:39.699Z,46.76
2019-05-30T11:01:39.726Z,46.96
2019-05-30T11:02:39.679Z,46.66
2019-05-30T11:03:39.685Z,46.66
2019-05-30T11:04:39.661Z,45.34
2019-05-30T11:05:39.654Z,44.71
2019-05-30T11:06:39.738Z,47.85
2019-05-30T11:07:53.061Z,46.94
2019-05-30T11:08:40.639Z,48.55
2019-05-30T11:09:39.623Z,51.40
2019-05-30T11:10:39.610Z,49.05
2019-05-30T11:11:39.666Z,47.44
2019-05-30T11:12:39.575Z,44.82
2019-05-30T11:13:39.560Z,48.35
2019-05-30T11:14:39.572Z,54.08
2019-05-30T11:15:39.567Z,52.97
2019-05-30T11:16:39.538Z,51.86
2019-05-30T11:17:39.516Z,57.01
2019-05-30T11:18:39.567Z,53.98
2019-05-30T11:19:39.523Z,46.31
2019-05-30T11:20:39.504Z,51.15
2019-05-30T11:21:39.534Z,48.63
2019-05-30T11:22:39.532Z,49.31
2019-05-30T11:23:39.455Z,54.99
2019-05-30T11:24:39.481Z,57.48
2019-05-30T11:25:39.430Z,54.68
2019-05-30T11:26:39.460Z,54.96
2019-05-30T11:27:39.517Z,55.39
2019-05-30T11:28:39.512Z,57.21
2019-05-30T11:29:39.620Z,52.97
2019-05-30T11:30:39.550Z,53.88
2019-05-30T11:31:39.457Z,58.82
2019-05-30T11:32:39.387Z,50.98
2019-05-30T11:33:39.354Z,48.15
2019-05-30T11:34:39.426Z,48.75
2019-05-30T11:35:39.372Z,46.43
2019-05-30T11:36:39.352Z,47.64
2019-05-30T11:37:39.317Z,47.74
2019-05-30T11:38:39.348Z,45.02
2019-05-30T11:39:39.302Z,46.31
2019-05-30T11:40:39.272Z,45.70
2019-05-30T11:41:39.380Z,45.30
2019-05-30T11:42:39.300Z,44.39
2019-05-30T11:43:39.254Z,45.20
2019-05-30T11:44:39.255Z,43.99
2019-05-30T11:45:39.215Z,46.21
2019-05-30T11:46:39.302Z,46.41
2019-05-30T11:47:39.223Z,46.01
2019-05-30T11:48:39.204Z,46.31
2019-05-30T11:49:39.215Z,48.53
2019-05-30T11:50:39.160Z,46.81
2019-05-30T11:51:39.152Z,47.02
2019-05-30T11:52:39.210Z,44.09
2019-05-30T11:53:39.188Z,42.27
2019-05-30T11:54:39.166Z,42.78
2019-05-30T11:55:39.134Z,43.77
2019-05-30T11:56:39.116Z,44.57
2019-05-30T11:57:39.106Z,44.87
2019-05-30T11:58:39.086Z,45.68
2019-05-30T11:59:39.062Z,44.57
2019-05-30T12:00:39.050Z,44.78
2019-05-30T12:01:39.036Z,44.07
2019-05-30T12:02:39.033Z,44.67
2019-05-30T12:03:39.086Z,47.70
2019-05-30T12:04:39.147Z,46.49
2019-05-30T12:05:39.002Z,46.29
2019-05-30T12:06:38.999Z,45.28
2019-05-30T12:07:38.994Z,47.50
2019-05-30T12:08:38.969Z,46.89
2019-05-30T12:09:38.993Z,48.50
2019-05-30T12:10:38.950Z,51.43
2019-05-30T12:11:38.964Z,49.52
2019-05-30T12:12:38.926Z,50.12
2019-05-30T12:13:38.926Z,48.10
2019-05-30T12:14:39.004Z,45.28
2019-05-30T12:15:38.896Z,46.79
2019-05-30T12:16:38.877Z,45.07
2019-05-30T12:17:38.886Z,48.00
2019-05-30T12:18:38.867Z,46.49
2019-05-30T12:19:38.845Z,47.19
2019-05-30T12:20:38.844Z,47.19
2019-05-30T12:21:38.865Z,46.19
2019-05-30T12:22:38.821Z,46.49
2019-05-30T12:23:38.800Z,46.89
2019-05-30T12:24:38.792Z,48.61
2019-05-30T12:25:38.816Z,48.71
2019-05-30T12:26:38.782Z,51.33
2019-05-30T12:27:38.759Z,48.33
2019-05-30T12:28:38.745Z,49.64
2019-05-30T12:29:38.752Z,49.54
2019-05-30T12:30:54.401Z,46.51
2019-05-30T12:31:39.746Z,44.87
2019-05-30T12:32:39.558Z,46.59
2019-05-30T12:33:39.047Z,47.19
2019-05-30T12:34:38.835Z,46.47
2019-05-30T12:35:38.796Z,45.24
2019-05-30T12:36:38.682Z,47.35
2019-05-30T12:37:53.621Z,51.46
2019-05-30T12:38:39.786Z,51.36
2019-05-30T12:39:38.846Z,50.96
2019-05-30T12:40:39.427Z,43.30
2019-05-30T12:41:38.660Z,46.62
2019-05-30T12:42:38.637Z,46.73
2019-05-30T12:43:38.615Z,44.71
2019-05-30T12:44:38.623Z,44.39
2019-05-30T12:45:38.575Z,43.28
2019-05-30T12:46:38.579Z,43.18
2019-05-30T12:47:38.543Z,44.49
2019-05-30T12:48:38.544Z,46.38
2019-05-30T12:49:38.517Z,45.17
2019-05-30T12:50:38.817Z,43.66
2019-05-30T12:51:38.492Z,44.37
2019-05-30T12:52:38.522Z,44.85